sensor_id;sensor_type;location;lat;lon;timestamp;pressure;altitude;pressure_sealevel;temperature;humidity
23166;BME280;11751;42.700;24.170;2023-01-09T00:02:04;94302.09;;;-0.21;nan
23166;BME280;11751;42.700;24.170;2023-01-09T00:04:30;94295.22;;;-0.11;nan
23166;BME280;11751;42.700;24.170;2023-01-09T00:06:55;94295.97;;;-0.11;nan
23166;BME280;11751;42.700;24.170;2023-01-09T00:09:22;94300.44;;;-0.13;nan
23166;BME280;11751;42.700;24.170;2023-01-09T00:11:49;94315.72;;;-0.12;nan
23166;BME280;11751;42.700;24.170;2023-01-09T00:14:15;94302.22;;;-0.10;nan
23166;BME280;11751;42.700;24.170;2023-01-09T00:16:41;94311.25;;;-0.10;nan
23166;BME280;11751;42.700;24.170;2023-01-09T00:19:07;94300.94;;;-0.15;nan
23166;BME280;11751;42.700;24.170;2023-01-09T00:21:32;94293.56;;;-0.23;nan
23166;BME280;11751;42.700;24.170;2023-01-09T00:23:58;94298.19;;;-0.15;nan
23166;BME280;11751;42.700;24.170;2023-01-09T00:26:23;94295.09;;;-0.22;nan
23166;BME280;11751;42.700;24.170;2023-01-09T00:28:50;94291.88;;;-0.21;nan
23166;BME280;11751;42.700;24.170;2023-01-09T00:31:17;94287.69;;;-0.36;nan
23166;BME280;11751;42.700;24.170;2023-01-09T00:36:20;94307.59;;;-0.41;nan
23166;BME280;11751;42.700;24.170;2023-01-09T00:38:45;94291.19;;;-0.36;nan
23166;BME280;11751;42.700;24.170;2023-01-09T00:41:15;94301.00;;;-0.29;nan
23166;BME280;11751;42.700;24.170;2023-01-09T00:43:49;94297.69;;;-0.33;nan
23166;BME280;11751;42.700;24.170;2023-01-09T00:46:18;94295.16;;;-0.37;nan
23166;BME280;11751;42.700;24.170;2023-01-09T00:48:46;94293.56;;;-0.63;nan
23166;BME280;11751;42.700;24.170;2023-01-09T00:51:12;94280.94;;;-0.55;nan
23166;BME280;11751;42.700;24.170;2023-01-09T00:53:40;94275.25;;;-0.52;nan
23166;BME280;11751;42.700;24.170;2023-01-09T00:56:12;94281.63;;;-0.60;nan
23166;BME280;11751;42.700;24.170;2023-01-09T00:58:39;94279.44;;;-0.56;nan
23166;BME280;11751;42.700;24.170;2023-01-09T01:01:04;94273.09;;;-0.62;nan
23166;BME280;11751;42.700;24.170;2023-01-09T01:03:30;94260.47;;;-0.54;nan
23166;BME280;11751;42.700;24.170;2023-01-09T01:05:56;94264.84;;;-0.42;nan
23166;BME280;11751;42.700;24.170;2023-01-09T01:08:40;94258.81;;;-0.46;nan
23166;BME280;11751;42.700;24.170;2023-01-09T01:11:07;94260.72;;;-0.52;nan
23166;BME280;11751;42.700;24.170;2023-01-09T01:13:38;94255.22;;;-0.52;nan
23166;BME280;11751;42.700;24.170;2023-01-09T01:16:08;94256.19;;;-0.55;nan
23166;BME280;11751;42.700;24.170;2023-01-09T01:18:34;94251.94;;;-0.56;nan
23166;BME280;11751;42.700;24.170;2023-01-09T01:21:00;94248.69;;;-0.55;nan
23166;BME280;11751;42.700;24.170;2023-01-09T01:23:25;94244.22;;;-0.52;nan
23166;BME280;11751;42.700;24.170;2023-01-09T01:25:51;94233.50;;;-0.50;nan
23166;BME280;11751;42.700;24.170;2023-01-09T01:28:16;94242.69;;;-0.53;nan
23166;BME280;11751;42.700;24.170;2023-01-09T01:30:42;94233.22;;;-0.52;nan
23166;BME280;11751;42.700;24.170;2023-01-09T01:33:08;94229.78;;;-0.47;nan
23166;BME280;11751;42.700;24.170;2023-01-09T01:35:34;94224.59;;;-0.65;nan
23166;BME280;11751;42.700;24.170;2023-01-09T01:38:00;94226.19;;;-0.53;nan
23166;BME280;11751;42.700;24.170;2023-01-09T01:40:26;94225.25;;;-0.50;nan
23166;BME280;11751;42.700;24.170;2023-01-09T01:42:53;94219.22;;;-0.54;nan
23166;BME280;11751;42.700;24.170;2023-01-09T01:45:21;94222.00;;;-0.49;nan
23166;BME280;11751;42.700;24.170;2023-01-09T01:48:01;94212.75;;;-0.71;nan
23166;BME280;11751;42.700;24.170;2023-01-09T01:53:38;94204.03;;;-0.70;nan
23166;BME280;11751;42.700;24.170;2023-01-09T01:56:32;94196.81;;;-0.67;nan
23166;BME280;11751;42.700;24.170;2023-01-09T02:01:31;94180.34;;;-0.87;nan
23166;BME280;11751;42.700;24.170;2023-01-09T02:04:00;94174.63;;;-0.84;nan
23166;BME280;11751;42.700;24.170;2023-01-09T02:06:26;94176.88;;;-0.82;nan
23166;BME280;11751;42.700;24.170;2023-01-09T02:08:54;94169.84;;;-0.88;nan
23166;BME280;11751;42.700;24.170;2023-01-09T02:11:20;94176.13;;;-0.83;nan
23166;BME280;11751;42.700;24.170;2023-01-09T02:13:46;94176.88;;;-0.82;nan
23166;BME280;11751;42.700;24.170;2023-01-09T02:24:59;94176.13;;;-0.83;nan
23166;BME280;11751;42.700;24.170;2023-01-09T02:27:52;94160.81;;;-0.89;nan
23166;BME280;11751;42.700;24.170;2023-01-09T02:32:58;94166.72;;;-1.36;nan
23166;BME280;11751;42.700;24.170;2023-01-09T02:38:05;94163.16;;;-1.22;nan
23166;BME280;11751;42.700;24.170;2023-01-09T02:40:46;94161.59;;;-1.28;nan
23166;BME280;11751;42.700;24.170;2023-01-09T02:43:14;94158.47;;;-1.36;nan
23166;BME280;11751;42.700;24.170;2023-01-09T02:45:41;94150.19;;;-1.21;nan
23166;BME280;11751;42.700;24.170;2023-01-09T02:48:09;94155.47;;;-1.18;nan
23166;BME280;11751;42.700;24.170;2023-01-09T02:50:40;94159.88;;;-1.26;nan
23166;BME280;11751;42.700;24.170;2023-01-09T03:04:36;94155.03;;;-1.31;nan
23166;BME280;11751;42.700;24.170;2023-01-09T03:09:40;94156.84;;;-1.28;nan
23166;BME280;11751;42.700;24.170;2023-01-09T03:12:10;94155.94;;;-1.39;nan
23166;BME280;11751;42.700;24.170;2023-01-09T03:14:39;94152.13;;;-1.42;nan
23166;BME280;11751;42.700;24.170;2023-01-09T03:17:11;94152.38;;;-1.60;nan
23166;BME280;11751;42.700;24.170;2023-01-09T03:19:39;94146.91;;;-1.60;nan
23166;BME280;11751;42.700;24.170;2023-01-09T03:22:06;94133.34;;;-1.49;nan
23166;BME280;11751;42.700;24.170;2023-01-09T03:24:32;94138.41;;;-1.42;nan
23166;BME280;11751;42.700;24.170;2023-01-09T03:26:58;94140.97;;;-1.38;nan
23166;BME280;11751;42.700;24.170;2023-01-09T03:29:23;94142.81;;;-1.30;nan
23166;BME280;11751;42.700;24.170;2023-01-09T03:31:49;94137.31;;;-1.30;nan
23166;BME280;11751;42.700;24.170;2023-01-09T03:34:14;94151.13;;;-1.24;nan
23166;BME280;11751;42.700;24.170;2023-01-09T03:36:39;94151.13;;;-1.24;nan
23166;BME280;11751;42.700;24.170;2023-01-09T03:39:05;94144.91;;;-1.25;nan
23166;BME280;11751;42.700;24.170;2023-01-09T03:41:30;94140.91;;;-1.24;nan
23166;BME280;11751;42.700;24.170;2023-01-09T03:43:56;94138.31;;;-1.33;nan
23166;BME280;11751;42.700;24.170;2023-01-09T03:46:21;94151.47;;;-1.37;nan
23166;BME280;11751;42.700;24.170;2023-01-09T03:48:46;94149.69;;;-1.40;nan
23166;BME280;11751;42.700;24.170;2023-01-09T03:51:12;94151.88;;;-1.44;nan
23166;BME280;11751;42.700;24.170;2023-01-09T03:53:37;94158.41;;;-1.41;nan
23166;BME280;11751;42.700;24.170;2023-01-09T03:56:03;94149.53;;;-1.51;nan
23166;BME280;11751;42.700;24.170;2023-01-09T03:58:28;94162.03;;;-1.50;nan
23166;BME280;11751;42.700;24.170;2023-01-09T04:00:59;94159.56;;;-1.48;nan
23166;BME280;11751;42.700;24.170;2023-01-09T04:03:25;94161.06;;;-1.47;nan
23166;BME280;11751;42.700;24.170;2023-01-09T04:05:50;94150.75;;;-1.52;nan
23166;BME280;11751;42.700;24.170;2023-01-09T04:08:16;94156.94;;;-1.57;nan
23166;BME280;11751;42.700;24.170;2023-01-09T04:10:46;94152.22;;;-1.71;nan
23166;BME280;11751;42.700;24.170;2023-01-09T04:13:12;94160.09;;;-1.64;nan
23166;BME280;11751;42.700;24.170;2023-01-09T04:15:37;94155.84;;;-1.65;nan
23166;BME280;11751;42.700;24.170;2023-01-09T04:18:03;94167.34;;;-1.61;nan
23166;BME280;11751;42.700;24.170;2023-01-09T04:20:29;94168.13;;;-1.60;nan
23166;BME280;11751;42.700;24.170;2023-01-09T04:22:55;94161.84;;;-1.61;nan
23166;BME280;11751;42.700;24.170;2023-01-09T04:25:20;94156.38;;;-1.61;nan
23166;BME280;11751;42.700;24.170;2023-01-09T04:27:47;94160.91;;;-1.58;nan
23166;BME280;11751;42.700;24.170;2023-01-09T04:30:13;94168.53;;;-1.67;nan
23166;BME280;11751;42.700;24.170;2023-01-09T04:32:38;94168.31;;;-1.64;nan
23166;BME280;11751;42.700;24.170;2023-01-09T04:35:04;94173.81;;;-1.64;nan
23166;BME280;11751;42.700;24.170;2023-01-09T04:37:30;94167.47;;;-1.70;nan
23166;BME280;11751;42.700;24.170;2023-01-09T04:39:55;94168.88;;;-1.60;nan
23166;BME280;11751;42.700;24.170;2023-01-09T04:42:21;94175.47;;;-1.52;nan
23166;BME280;11751;42.700;24.170;2023-01-09T04:44:46;94158.44;;;-1.56;nan
23166;BME280;11751;42.700;24.170;2023-01-09T04:47:12;94169.03;;;-1.49;nan
23166;BME280;11751;42.700;24.170;2023-01-09T04:49:38;94173.38;;;-1.42;nan
23166;BME280;11751;42.700;24.170;2023-01-09T04:52:03;94167.22;;;-1.37;nan
23166;BME280;11751;42.700;24.170;2023-01-09T04:54:29;94162.47;;;-1.37;nan
23166;BME280;11751;42.700;24.170;2023-01-09T04:56:54;94174.09;;;-1.42;nan
23166;BME280;11751;42.700;24.170;2023-01-09T04:59:20;94166.56;;;-1.47;nan
23166;BME280;11751;42.700;24.170;2023-01-09T05:01:45;94170.53;;;-1.48;nan
23166;BME280;11751;42.700;24.170;2023-01-09T05:04:11;94172.72;;;-1.52;nan
23166;BME280;11751;42.700;24.170;2023-01-09T05:06:37;94172.88;;;-1.41;nan
23166;BME280;11751;42.700;24.170;2023-01-09T05:09:03;94172.13;;;-1.41;nan
23166;BME280;11751;42.700;24.170;2023-01-09T05:11:28;94175.91;;;-1.39;nan
23166;BME280;11751;42.700;24.170;2023-01-09T05:13:53;94166.34;;;-1.43;nan
23166;BME280;11751;42.700;24.170;2023-01-09T05:16:20;94165.34;;;-1.46;nan
23166;BME280;11751;42.700;24.170;2023-01-09T05:18:45;94164.63;;;-1.41;nan
23166;BME280;11751;42.700;24.170;2023-01-09T05:21:12;94154.63;;;-1.44;nan
23166;BME280;11751;42.700;24.170;2023-01-09T05:23:37;94154.34;;;-1.46;nan
23166;BME280;11751;42.700;24.170;2023-01-09T05:26:03;94153.13;;;-1.45;nan
23166;BME280;11751;42.700;24.170;2023-01-09T05:28:29;94155.16;;;-1.40;nan
23166;BME280;11751;42.700;24.170;2023-01-09T05:30:55;94147.22;;;-1.38;nan
23166;BME280;11751;42.700;24.170;2023-01-09T05:33:20;94161.22;;;-1.36;nan
23166;BME280;11751;42.700;24.170;2023-01-09T05:35:45;94146.72;;;-1.36;nan
23166;BME280;11751;42.700;24.170;2023-01-09T05:38:11;94154.56;;;-1.29;nan
23166;BME280;11751;42.700;24.170;2023-01-09T05:40:36;94156.56;;;-1.30;nan
23166;BME280;11751;42.700;24.170;2023-01-09T05:43:02;94149.81;;;-1.29;nan
23166;BME280;11751;42.700;24.170;2023-01-09T05:45:27;94150.38;;;-1.25;nan
23166;BME280;11751;42.700;24.170;2023-01-09T05:47:52;94153.81;;;-1.30;nan
23166;BME280;11751;42.700;24.170;2023-01-09T05:50:18;94157.25;;;-1.35;nan
23166;BME280;11751;42.700;24.170;2023-01-09T05:52:43;94158.47;;;-1.36;nan
23166;BME280;11751;42.700;24.170;2023-01-09T05:55:10;94154.06;;;-1.48;nan
23166;BME280;11751;42.700;24.170;2023-01-09T05:57:36;94151.44;;;-1.57;nan
23166;BME280;11751;42.700;24.170;2023-01-09T06:00:02;94157.59;;;-1.47;nan
23166;BME280;11751;42.700;24.170;2023-01-09T06:02:28;94152.09;;;-1.47;nan
23166;BME280;11751;42.700;24.170;2023-01-09T06:04:53;94158.44;;;-1.56;nan
23166;BME280;11751;42.700;24.170;2023-01-09T06:07:19;94153.13;;;-1.45;nan
23166;BME280;11751;42.700;24.170;2023-01-09T06:09:44;94156.16;;;-1.43;nan
23166;BME280;11751;42.700;24.170;2023-01-09T06:12:09;94149.94;;;-1.58;nan
23166;BME280;11751;42.700;24.170;2023-01-09T06:14:35;94155.00;;;-1.51;nan
23166;BME280;11751;42.700;24.170;2023-01-09T06:17:01;94157.50;;;-1.53;nan
23166;BME280;11751;42.700;24.170;2023-01-09T06:19:26;94165.56;;;-1.64;nan
23166;BME280;11751;42.700;24.170;2023-01-09T06:21:52;94162.44;;;-1.57;nan
23166;BME280;11751;42.700;24.170;2023-01-09T06:24:18;94161.69;;;-1.57;nan
23166;BME280;11751;42.700;24.170;2023-01-09T06:26:43;94152.97;;;-1.56;nan
23166;BME280;11751;42.700;24.170;2023-01-09T06:29:08;94169.09;;;-1.43;nan
23166;BME280;11751;42.700;24.170;2023-01-09T06:31:34;94161.63;;;-1.43;nan
23166;BME280;11751;42.700;24.170;2023-01-09T06:33:59;94157.75;;;-1.51;nan
23166;BME280;11751;42.700;24.170;2023-01-09T06:36:25;94163.00;;;-1.53;nan
23166;BME280;11751;42.700;24.170;2023-01-09T06:38:50;94156.16;;;-1.43;nan
23166;BME280;11751;42.700;24.170;2023-01-09T06:41:16;94141.44;;;-1.40;nan
23166;BME280;11751;42.700;24.170;2023-01-09T06:43:41;94141.06;;;-1.33;nan
23166;BME280;11751;42.700;24.170;2023-01-09T06:46:07;94151.13;;;-1.24;nan
23166;BME280;11751;42.700;24.170;2023-01-09T06:48:32;94151.19;;;-1.19;nan
23166;BME280;11751;42.700;24.170;2023-01-09T06:50:58;94151.75;;;-1.15;nan
23166;BME280;11751;42.700;24.170;2023-01-09T06:53:24;94148.31;;;-1.30;nan
23166;BME280;11751;42.700;24.170;2023-01-09T06:55:50;94136.94;;;-1.23;nan
23166;BME280;11751;42.700;24.170;2023-01-09T06:58:15;94140.06;;;-1.10;nan
23166;BME280;11751;42.700;24.170;2023-01-09T07:00:41;94144.75;;;-0.96;nan
23166;BME280;11751;42.700;24.170;2023-01-09T07:03:07;94139.25;;;-0.96;nan
23166;BME280;11751;42.700;24.170;2023-01-09T07:05:38;94142.94;;;-0.79;nan
23166;BME280;11751;42.700;24.170;2023-01-09T07:08:04;94133.78;;;-0.71;nan
23166;BME280;11751;42.700;24.170;2023-01-09T07:10:29;94129.16;;;-0.59;nan
23166;BME280;11751;42.700;24.170;2023-01-09T07:12:54;94128.31;;;-0.45;nan
23166;BME280;11751;42.700;24.170;2023-01-09T07:15:20;94136.91;;;-0.32;nan
23166;BME280;11751;42.700;24.170;2023-01-09T07:17:45;94139.81;;;-0.16;nan
23166;BME280;11751;42.700;24.170;2023-01-09T07:20:11;94111.13;;;-0.09;nan
23166;BME280;11751;42.700;24.170;2023-01-09T07:22:36;94126.75;;;0.04;nan
23166;BME280;11751;42.700;24.170;2023-01-09T07:25:02;94124.06;;;0.15;nan
23166;BME280;11751;42.700;24.170;2023-01-09T07:27:27;94128.94;;;0.31;nan
23166;BME280;11751;42.700;24.170;2023-01-09T07:29:53;94124.03;;;0.46;nan
23166;BME280;11751;42.700;24.170;2023-01-09T07:32:18;94126.06;;;0.51;nan
23166;BME280;11751;42.700;24.170;2023-01-09T07:34:43;94125.13;;;0.65;nan
23166;BME280;11751;42.700;24.170;2023-01-09T07:37:09;94118.38;;;0.66;nan
23166;BME280;11751;42.700;24.170;2023-01-09T07:39:34;94129.50;;;0.82;nan
23166;BME280;11751;42.700;24.170;2023-01-09T07:42:00;94125.34;;;1.03;nan
23166;BME280;11751;42.700;24.170;2023-01-09T07:44:25;94109.31;;;1.13;nan
23166;BME280;11751;42.700;24.170;2023-01-09T07:46:51;94111.13;;;1.27;nan
23166;BME280;11751;42.700;24.170;2023-01-09T07:49:16;94117.94;;;1.37;nan
23166;BME280;11751;42.700;24.170;2023-01-09T07:51:41;94114.44;;;1.53;nan
23166;BME280;11751;42.700;24.170;2023-01-09T07:54:08;94110.19;;;1.57;nan
23166;BME280;11751;42.700;24.170;2023-01-09T07:56:33;94112.00;;;1.76;nan
23166;BME280;11751;42.700;24.170;2023-01-09T07:58:59;94102.47;;;1.88;nan
23166;BME280;11751;42.700;24.170;2023-01-09T08:01:24;94107.75;;;2.03;nan
23166;BME280;11751;42.700;24.170;2023-01-09T08:03:50;94111.00;;;2.23;nan
23166;BME280;11751;42.700;24.170;2023-01-09T08:06:15;94121.53;;;2.30;nan
23166;BME280;11751;42.700;24.170;2023-01-09T08:08:41;94125.06;;;2.47;nan
23166;BME280;11751;42.700;24.170;2023-01-09T08:11:07;94117.25;;;2.51;nan
23166;BME280;11751;42.700;24.170;2023-01-09T08:13:32;94114.47;;;2.62;nan
23166;BME280;11751;42.700;24.170;2023-01-09T08:15:58;94121.50;;;2.68;nan
23166;BME280;11751;42.700;24.170;2023-01-09T08:18:23;94114.94;;;2.88;nan
23166;BME280;11751;42.700;24.170;2023-01-09T08:20:49;94119.94;;;2.84;nan
23166;BME280;11751;42.700;24.170;2023-01-09T08:23:14;94124.22;;;2.85;nan
23166;BME280;11751;42.700;24.170;2023-01-09T08:25:40;94130.47;;;3.02;nan
23166;BME280;11751;42.700;24.170;2023-01-09T08:28:05;94125.44;;;3.06;nan
23166;BME280;11751;42.700;24.170;2023-01-09T08:30:30;94125.47;;;2.95;nan
23166;BME280;11751;42.700;24.170;2023-01-09T08:32:56;94124.88;;;3.13;nan
23166;BME280;11751;42.700;24.170;2023-01-09T08:35:21;94132.63;;;3.31;nan
23166;BME280;11751;42.700;24.170;2023-01-09T08:37:47;94134.38;;;3.34;nan
23166;BME280;11751;42.700;24.170;2023-01-09T08:40:14;94128.28;;;3.40;nan
23166;BME280;11751;42.700;24.170;2023-01-09T08:42:40;94127.97;;;3.55;nan
23166;BME280;11751;42.700;24.170;2023-01-09T08:45:24;94126.03;;;3.44;nan
23166;BME280;11751;42.700;24.170;2023-01-09T08:48:22;94149.59;;;3.62;nan
23166;BME280;11751;42.700;24.170;2023-01-09T08:50:48;94147.03;;;3.69;nan
23166;BME280;11751;42.700;24.170;2023-01-09T08:53:13;94148.72;;;3.83;nan
23166;BME280;11751;42.700;24.170;2023-01-09T08:55:40;94134.81;;;3.94;nan
23166;BME280;11751;42.700;24.170;2023-01-09T08:58:06;94141.56;;;3.99;nan
23166;BME280;11751;42.700;24.170;2023-01-09T09:00:31;94128.09;;;4.14;nan
23166;BME280;11751;42.700;24.170;2023-01-09T09:02:58;94132.34;;;4.20;nan
23166;BME280;11751;42.700;24.170;2023-01-09T09:05:26;94140.09;;;4.27;nan
23166;BME280;11751;42.700;24.170;2023-01-09T09:07:53;94125.31;;;4.19;nan
23166;BME280;11751;42.700;24.170;2023-01-09T09:10:24;94124.66;;;4.37;nan
23166;BME280;11751;42.700;24.170;2023-01-09T09:12:52;94123.50;;;4.56;nan
23166;BME280;11751;42.700;24.170;2023-01-09T09:15:18;94123.19;;;4.60;nan
23166;BME280;11751;42.700;24.170;2023-01-09T09:20:20;94114.44;;;4.50;nan
23166;BME280;11751;42.700;24.170;2023-01-09T09:22:46;94115.81;;;4.68;nan
23166;BME280;11751;42.700;24.170;2023-01-09T09:25:12;94117.78;;;4.73;nan
23166;BME280;11751;42.700;24.170;2023-01-09T09:27:37;94116.25;;;4.77;nan
23166;BME280;11751;42.700;24.170;2023-01-09T09:30:03;94113.63;;;4.85;nan
23166;BME280;11751;42.700;24.170;2023-01-09T09:32:30;94117.00;;;5.02;nan
23166;BME280;11751;42.700;24.170;2023-01-09T09:34:56;94105.81;;;4.83;nan
23166;BME280;11751;42.700;24.170;2023-01-09T09:37:21;94109.41;;;5.02;nan
23166;BME280;11751;42.700;24.170;2023-01-09T09:39:47;94103.91;;;4.97;nan
23166;BME280;11751;42.700;24.170;2023-01-09T09:53:05;94097.09;;;4.98;nan
23166;BME280;11751;42.700;24.170;2023-01-09T09:55:37;94080.56;;;4.87;nan
23166;BME280;11751;42.700;24.170;2023-01-09T09:58:20;94076.28;;;4.86;nan
23166;BME280;11751;42.700;24.170;2023-01-09T10:00:48;94083.94;;;4.80;nan
23166;BME280;11751;42.700;24.170;2023-01-09T10:03:40;94073.06;;;4.82;nan
23166;BME280;11751;42.700;24.170;2023-01-09T10:06:16;94081.41;;;4.82;nan
23166;BME280;11751;42.700;24.170;2023-01-09T10:14:06;94032.41;;;5.08;nan
23166;BME280;11751;42.700;24.170;2023-01-09T10:27:32;94032.47;;;5.03;nan
23166;BME280;11751;42.700;24.170;2023-01-09T10:30:26;94036.41;;;4.89;nan
23166;BME280;11751;42.700;24.170;2023-01-09T10:37:59;94020.28;;;5.48;nan
23166;BME280;11751;42.700;24.170;2023-01-09T10:40:47;94020.41;;;5.55;nan
23166;BME280;11751;42.700;24.170;2023-01-09T10:43:38;94008.09;;;5.69;nan
23166;BME280;11751;42.700;24.170;2023-01-09T10:46:21;93993.91;;;5.73;nan
23166;BME280;11751;42.700;24.170;2023-01-09T10:48:52;93984.97;;;5.80;nan
23166;BME280;11751;42.700;24.170;2023-01-09T10:51:44;93986.44;;;5.99;nan
23166;BME280;11751;42.700;24.170;2023-01-09T10:54:12;93975.72;;;5.90;nan
23166;BME280;11751;42.700;24.170;2023-01-09T10:56:41;93965.69;;;6.00;nan
23166;BME280;11751;42.700;24.170;2023-01-09T10:59:09;93965.69;;;6.00;nan
23166;BME280;11751;42.700;24.170;2023-01-09T11:01:37;93951.63;;;6.24;nan
23166;BME280;11751;42.700;24.170;2023-01-09T11:04:23;93950.56;;;6.27;nan
23166;BME280;11751;42.700;24.170;2023-01-09T11:06:55;93941.59;;;6.47;nan
23166;BME280;11751;42.700;24.170;2023-01-09T11:09:22;93931.53;;;6.44;nan
23166;BME280;11751;42.700;24.170;2023-01-09T11:11:48;93924.91;;;6.34;nan
23166;BME280;11751;42.700;24.170;2023-01-09T11:14:15;93925.75;;;6.42;nan
23166;BME280;11751;42.700;24.170;2023-01-09T11:16:56;93926.41;;;6.35;nan
23166;BME280;11751;42.700;24.170;2023-01-09T11:19:23;93917.59;;;6.05;nan
23166;BME280;11751;42.700;24.170;2023-01-09T11:21:49;93913.56;;;6.32;nan
23166;BME280;11751;42.700;24.170;2023-01-09T11:26:44;93925.00;;;6.28;nan
23166;BME280;11751;42.700;24.170;2023-01-09T11:29:12;93916.47;;;6.52;nan
23166;BME280;11751;42.700;24.170;2023-01-09T11:31:39;93911.44;;;6.64;nan
23166;BME280;11751;42.700;24.170;2023-01-09T11:34:16;93911.97;;;6.62;nan
23166;BME280;11751;42.700;24.170;2023-01-09T11:36:44;93916.56;;;6.47;nan
23166;BME280;11751;42.700;24.170;2023-01-09T11:39:26;93902.78;;;6.54;nan
23166;BME280;11751;42.700;24.170;2023-01-09T11:41:55;93893.34;;;6.57;nan
23166;BME280;11751;42.700;24.170;2023-01-09T11:44:22;93894.84;;;6.71;nan
23166;BME280;11751;42.700;24.170;2023-01-09T11:46:49;93898.06;;;6.75;nan
23166;BME280;11751;42.700;24.170;2023-01-09T11:51:41;93889.38;;;6.78;nan
23166;BME280;11751;42.700;24.170;2023-01-09T11:54:11;93887.66;;;6.76;nan
23166;BME280;11751;42.700;24.170;2023-01-09T11:56:39;93889.28;;;6.71;nan
23166;BME280;11751;42.700;24.170;2023-01-09T11:59:17;93889.06;;;6.82;nan
23166;BME280;11751;42.700;24.170;2023-01-09T12:09:55;93877.47;;;6.91;nan
23166;BME280;11751;42.700;24.170;2023-01-09T12:12:48;93876.09;;;6.84;nan
23166;BME280;11751;42.700;24.170;2023-01-09T12:26:22;93856.28;;;6.88;nan
23166;BME280;11751;42.700;24.170;2023-01-09T12:32:12;93846.75;;;6.83;nan
23166;BME280;11751;42.700;24.170;2023-01-09T12:35:21;93833.97;;;6.55;nan
23166;BME280;11751;42.700;24.170;2023-01-09T12:41:01;93832.59;;;6.48;nan
23166;BME280;11751;42.700;24.170;2023-01-09T12:49:32;93844.41;;;6.15;nan
23166;BME280;11751;42.700;24.170;2023-01-09T12:54:52;93820.88;;;6.16;nan
23166;BME280;11751;42.700;24.170;2023-01-09T12:57:39;93816.91;;;6.38;nan
23166;BME280;11751;42.700;24.170;2023-01-09T13:00:13;93823.41;;;6.53;nan
23166;BME280;11751;42.700;24.170;2023-01-09T13:02:49;93804.91;;;6.43;nan
23166;BME280;11751;42.700;24.170;2023-01-09T13:07:50;93827.16;;;6.43;nan
23166;BME280;11751;42.700;24.170;2023-01-09T13:10:30;93821.41;;;6.28;nan
23166;BME280;11751;42.700;24.170;2023-01-09T13:13:06;93828.34;;;6.34;nan
23166;BME280;11751;42.700;24.170;2023-01-09T13:15:39;93821.19;;;6.26;nan
23166;BME280;11751;42.700;24.170;2023-01-09T13:18:18;93814.97;;;6.33;nan
23166;BME280;11751;42.700;24.170;2023-01-09T13:20:52;93825.03;;;6.36;nan
23166;BME280;11751;42.700;24.170;2023-01-09T13:25:51;93824.38;;;6.43;nan
23166;BME280;11751;42.700;24.170;2023-01-09T13:28:22;93825.03;;;6.36;nan
23166;BME280;11751;42.700;24.170;2023-01-09T13:33:35;93824.41;;;6.76;nan
23166;BME280;11751;42.700;24.170;2023-01-09T13:36:03;93815.09;;;6.86;nan
23166;BME280;11751;42.700;24.170;2023-01-09T13:38:32;93821.69;;;6.96;nan
23166;BME280;11751;42.700;24.170;2023-01-09T13:43:56;93821.78;;;7.04;nan
23166;BME280;11751;42.700;24.170;2023-01-09T13:46:40;93825.50;;;7.06;nan
23166;BME280;11751;42.700;24.170;2023-01-09T13:52:29;93813.78;;;6.87;nan
23166;BME280;11751;42.700;24.170;2023-01-09T13:57:36;93812.22;;;6.79;nan
23166;BME280;11751;42.700;24.170;2023-01-09T14:08:02;93796.78;;;6.45;nan
23166;BME280;11751;42.700;24.170;2023-01-09T14:10:36;93795.38;;;6.38;nan
23166;BME280;11751;42.700;24.170;2023-01-09T14:13:11;93797.44;;;6.38;nan
23166;BME280;11751;42.700;24.170;2023-01-09T14:15:40;93802.16;;;6.30;nan
23166;BME280;11751;42.700;24.170;2023-01-09T14:18:28;93796.16;;;6.26;nan
23166;BME280;11751;42.700;24.170;2023-01-09T14:20:59;93795.53;;;6.20;nan
23166;BME280;11751;42.700;24.170;2023-01-09T14:24:00;93794.56;;;6.17;nan
23166;BME280;11751;42.700;24.170;2023-01-09T14:26:47;93786.56;;;5.88;nan
23166;BME280;11751;42.700;24.170;2023-01-09T14:34:54;93782.03;;;5.59;nan
23166;BME280;11751;42.700;24.170;2023-01-09T14:37:21;93786.72;;;5.64;nan
23166;BME280;11751;42.700;24.170;2023-01-09T14:39:48;93785.84;;;5.43;nan
23166;BME280;11751;42.700;24.170;2023-01-09T14:42:17;93777.31;;;5.41;nan
23166;BME280;11751;42.700;24.170;2023-01-09T14:52:48;93789.00;;;5.21;nan
23166;BME280;11751;42.700;24.170;2023-01-09T14:55:53;93781.41;;;5.22;nan
23166;BME280;11751;42.700;24.170;2023-01-09T14:58:31;93773.59;;;5.07;nan
23166;BME280;11751;42.700;24.170;2023-01-09T15:01:11;93776.31;;;4.95;nan
23166;BME280;11751;42.700;24.170;2023-01-09T15:03:52;93785.31;;;5.01;nan
23166;BME280;11751;42.700;24.170;2023-01-09T15:06:27;93772.34;;;4.90;nan
23166;BME280;11751;42.700;24.170;2023-01-09T15:11:45;93777.63;;;4.75;nan
23166;BME280;11751;42.700;24.170;2023-01-09T15:16:53;93800.75;;;4.65;nan
23166;BME280;11751;42.700;24.170;2023-01-09T15:19:18;93791.75;;;4.59;nan
23166;BME280;11751;42.700;24.170;2023-01-09T15:21:56;93787.25;;;4.56;nan
23166;BME280;11751;42.700;24.170;2023-01-09T15:24:25;93771.44;;;4.32;nan
23166;BME280;11751;42.700;24.170;2023-01-09T15:26:56;93787.25;;;4.37;nan
23166;BME280;11751;42.700;24.170;2023-01-09T15:29:23;93768.75;;;4.27;nan
23166;BME280;11751;42.700;24.170;2023-01-09T15:31:56;93773.63;;;4.21;nan
23166;BME280;11751;42.700;24.170;2023-01-09T15:34:24;93775.25;;;3.93;nan
23166;BME280;11751;42.700;24.170;2023-01-09T15:36:50;93765.34;;;3.97;nan
23166;BME280;11751;42.700;24.170;2023-01-09T15:39:27;93771.97;;;3.94;nan
23166;BME280;11751;42.700;24.170;2023-01-09T15:41:55;93759.97;;;3.86;nan
23166;BME280;11751;42.700;24.170;2023-01-09T15:44:42;93757.78;;;3.79;nan
23166;BME280;11751;42.700;24.170;2023-01-09T15:47:17;93772.75;;;3.89;nan
23166;BME280;11751;42.700;24.170;2023-01-09T15:49:44;93765.44;;;3.92;nan
23166;BME280;11751;42.700;24.170;2023-01-09T15:52:14;93750.97;;;3.80;nan
23166;BME280;11751;42.700;24.170;2023-01-09T15:54:43;93757.41;;;3.88;nan
23166;BME280;11751;42.700;24.170;2023-01-09T15:59:55;93749.66;;;3.87;nan
23166;BME280;11751;42.700;24.170;2023-01-09T16:02:23;93760.13;;;3.75;nan
23166;BME280;11751;42.700;24.170;2023-01-09T16:05:15;93750.97;;;3.80;nan